createdAt,value
2023-05-03T00:02:56.528Z,6.90
2023-05-03T00:13:49.140Z,6.10
2023-05-03T00:18:10.389Z,8.90
2023-05-03T00:21:43.026Z,7.00
2023-05-03T00:25:26.058Z,5.30
2023-05-03T00:28:52.775Z,7.60
2023-05-03T00:32:20.052Z,6.30
2023-05-03T00:35:34.517Z,5.50
2023-05-03T00:38:37.997Z,7.30
2023-05-03T00:41:46.214Z,7.90
2023-05-03T00:45:24.815Z,6.10
2023-05-03T00:49:14.386Z,5.00
2023-05-03T00:52:47.577Z,8.10
2023-05-03T00:56:15.730Z,5.30
2023-05-03T00:59:40.088Z,6.20
2023-05-03T01:03:09.768Z,5.80
2023-05-03T01:09:41.632Z,9.40
2023-05-03T01:13:25.546Z,8.50
2023-05-03T01:16:27.948Z,4.80
2023-05-03T01:20:09.379Z,10.10
2023-05-03T01:23:40.992Z,5.20
2023-05-03T01:27:04.712Z,5.30
2023-05-03T01:30:12.786Z,5.50
2023-05-03T01:37:01.911Z,4.80
2023-05-03T01:40:36.461Z,6.20
2023-05-03T01:44:44.750Z,3.80
2023-05-03T01:48:03.912Z,4.30
2023-05-03T01:51:41.625Z,5.10
2023-05-03T01:54:49.081Z,5.30
2023-05-03T01:58:04.512Z,6.50
2023-05-03T02:01:25.603Z,6.70
2023-05-03T02:04:53.418Z,4.10
2023-05-03T02:08:22.092Z,5.50
2023-05-03T02:11:52.419Z,6.90
2023-05-03T02:15:17.613Z,6.20
2023-05-03T02:19:26.136Z,4.90
2023-05-03T02:22:17.173Z,5.60
2023-05-03T02:26:46.960Z,6.60
2023-05-03T02:30:26.675Z,8.00
2023-05-03T02:33:33.178Z,7.80
2023-05-03T02:37:09.376Z,8.40
2023-05-03T02:44:47.089Z,9.00
2023-05-03T02:49:05.415Z,10.20
2023-05-03T02:52:40.082Z,7.00
2023-05-03T02:56:12.472Z,8.80
2023-05-03T02:59:51.204Z,8.00
2023-05-03T03:03:21.223Z,6.60
2023-05-03T03:07:09.545Z,6.10
2023-05-03T03:14:08.104Z,7.20
2023-05-03T03:21:18.456Z,6.50
2023-05-03T03:24:45.499Z,5.70
2023-05-03T03:28:14.039Z,5.90
2023-05-03T03:31:57.095Z,5.90
2023-05-03T03:35:30.122Z,8.40
2023-05-03T03:38:42.971Z,8.20
2023-05-03T03:42:11.129Z,8.20
2023-05-03T03:46:43.151Z,8.40
2023-05-03T03:49:53.588Z,6.90
2023-05-03T04:06:35.770Z,6.10
2023-05-03T04:10:29.332Z,10.70
2023-05-03T04:14:07.108Z,7.40
2023-05-03T04:17:14.690Z,5.80
2023-05-03T04:21:26.104Z,11.20
2023-05-03T04:25:40.729Z,9.10
2023-05-03T04:30:15.099Z,11.80
2023-05-03T04:44:21.092Z,11.30
2023-05-03T04:48:04.958Z,5.50
2023-05-03T04:51:17.096Z,7.50
2023-05-03T04:54:11.988Z,4.60
2023-05-03T04:57:22.959Z,5.10
2023-05-03T05:03:49.537Z,6.80
2023-05-03T05:06:21.839Z,6.30
2023-05-03T05:08:58.728Z,4.80
2023-05-03T05:11:28.301Z,7.10
2023-05-03T05:14:08.744Z,6.50
2023-05-03T05:16:36.006Z,5.80
2023-05-03T05:19:04.516Z,4.40
2023-05-03T05:21:47.077Z,6.90
2023-05-03T05:24:35.325Z,6.70
2023-05-03T05:28:13.520Z,11.10
2023-05-03T05:31:16.126Z,6.30
2023-05-03T05:37:26.644Z,5.10
2023-05-03T05:40:01.196Z,8.30
2023-05-03T05:42:30.750Z,6.80
2023-05-03T05:44:58.998Z,5.60
2023-05-03T05:47:27.605Z,5.80
2023-05-03T05:50:16.722Z,4.00
2023-05-03T05:53:24.569Z,7.80
2023-05-03T05:55:59.966Z,4.60
2023-05-03T05:58:29.142Z,5.60
2023-05-03T06:01:19.567Z,4.40
2023-05-03T06:03:48.413Z,1.90
2023-05-03T06:08:53.797Z,2.30
2023-05-03T06:11:31.985Z,3.60
2023-05-03T06:14:09.613Z,4.30
2023-05-03T06:16:42.431Z,6.10
2023-05-03T06:19:11.359Z,5.70
2023-05-03T06:21:43.417Z,5.10
2023-05-03T06:24:19.558Z,2.60
2023-05-03T06:26:49.430Z,5.80
2023-05-03T06:29:18.964Z,4.50
2023-05-03T06:31:47.078Z,1.80
2023-05-03T06:34:23.450Z,3.10
2023-05-03T06:36:57.314Z,3.00
2023-05-03T06:39:28.019Z,1.80
2023-05-03T06:42:02.530Z,2.90
2023-05-03T06:44:53.179Z,4.20
2023-05-03T06:47:26.820Z,3.80
2023-05-03T06:49:54.131Z,2.00
2023-05-03T06:52:22.069Z,8.30
2023-05-03T06:55:00.813Z,5.10
2023-05-03T06:57:30.869Z,4.20
2023-05-03T07:00:00.185Z,5.00
2023-05-03T07:02:36.830Z,3.80
2023-05-03T07:05:25.358Z,4.10
2023-05-03T07:07:53.917Z,4.60
2023-05-03T07:12:51.885Z,4.60
2023-05-03T07:15:19.099Z,8.00
2023-05-03T07:17:48.557Z,4.50
2023-05-03T07:20:26.605Z,3.90
2023-05-03T07:22:54.451Z,3.90
2023-05-03T07:25:27.934Z,8.70
2023-05-03T07:28:00.204Z,8.60
2023-05-03T07:30:33.319Z,6.00
2023-05-03T07:33:01.525Z,3.40
2023-05-03T07:35:32.906Z,2.90
2023-05-03T07:38:00.798Z,4.70
2023-05-03T07:40:32.731Z,6.80
2023-05-03T07:43:04.756Z,4.30
2023-05-03T07:45:34.326Z,1.70
2023-05-03T07:48:01.595Z,1.50
2023-05-03T07:50:34.091Z,2.10
2023-05-03T07:53:03.345Z,3.40
2023-05-03T07:55:36.430Z,2.40
2023-05-03T07:58:08.876Z,2.90
2023-05-03T08:00:39.711Z,1.40
2023-05-03T08:03:09.194Z,1.40
2023-05-03T08:05:44.444Z,1.40
2023-05-03T08:08:13.655Z,1.90
2023-05-03T08:10:42.902Z,1.60
2023-05-03T08:13:11.266Z,2.50
2023-05-03T08:15:40.431Z,1.70
2023-05-03T08:18:08.569Z,2.60
2023-05-03T08:20:37.893Z,2.20
2023-05-03T08:25:41.732Z,2.00
2023-05-03T08:28:14.910Z,1.40
2023-05-03T08:30:42.350Z,1.10
2023-05-03T08:33:10.481Z,3.30
2023-05-03T08:35:40.381Z,1.30
2023-05-03T08:38:08.892Z,1.50
2023-05-03T08:40:37.080Z,2.30
2023-05-03T08:43:11.734Z,3.80
2023-05-03T08:45:40.466Z,2.50
2023-05-03T08:48:13.553Z,4.90
2023-05-03T08:50:42.661Z,2.90
2023-05-03T08:53:11.815Z,1.80
2023-05-03T08:55:39.090Z,3.30
2023-05-03T08:58:13.538Z,3.10
2023-05-03T09:00:45.027Z,2.00
2023-05-03T09:03:13.499Z,1.80
2023-05-03T09:05:43.718Z,12.50
2023-05-03T09:08:14.246Z,8.10
2023-05-03T09:10:44.569Z,4.40
2023-05-03T09:13:15.833Z,7.60
2023-05-03T09:15:59.040Z,3.30
2023-05-03T09:18:28.090Z,3.20
2023-05-03T09:21:24.783Z,2.50
2023-05-03T09:24:03.492Z,3.60
2023-05-03T09:27:01.782Z,3.40
2023-05-03T09:29:46.799Z,10.70
2023-05-03T09:33:21.903Z,3.60
2023-05-03T09:36:04.349Z,5.60
2023-05-03T09:38:36.810Z,1.50
2023-05-03T09:41:10.387Z,5.70
2023-05-03T09:43:52.173Z,4.00
2023-05-03T09:46:20.647Z,2.50
2023-05-03T09:48:55.415Z,2.20
2023-05-03T09:51:24.092Z,2.80
2023-05-03T09:53:54.620Z,3.80
2023-05-03T09:56:26.048Z,1.20
2023-05-03T09:58:54.231Z,2.80
2023-05-03T10:01:24.932Z,4.10
2023-05-03T10:03:54.966Z,3.90
2023-05-03T10:06:34.261Z,3.50
2023-05-03T10:09:39.833Z,3.80
2023-05-03T10:12:08.806Z,1.80
2023-05-03T10:14:38.137Z,0.90
2023-05-03T10:17:14.972Z,3.00
2023-05-03T10:19:56.219Z,2.10
2023-05-03T10:22:24.649Z,5.70
2023-05-03T10:27:46.287Z,2.30
2023-05-03T10:30:34.299Z,3.30
2023-05-03T10:33:28.338Z,4.10
2023-05-03T10:35:56.140Z,1.30
2023-05-03T10:38:25.713Z,2.00
2023-05-03T10:40:54.705Z,2.30
2023-05-03T10:46:02.649Z,2.90
2023-05-03T10:48:32.441Z,1.90
2023-05-03T10:51:45.331Z,1.50
2023-05-03T10:54:12.896Z,3.40
2023-05-03T10:56:50.407Z,3.90
2023-05-03T10:59:17.572Z,3.80
2023-05-03T11:01:47.180Z,2.60
2023-05-03T11:04:26.535Z,3.80
2023-05-03T11:06:56.461Z,1.70
2023-05-03T11:09:32.640Z,3.90
2023-05-03T11:12:05.833Z,2.60
2023-05-03T11:14:36.046Z,3.10
2023-05-03T11:17:03.622Z,6.30
2023-05-03T11:19:34.855Z,4.20
2023-05-03T11:22:02.648Z,3.60
2023-05-03T11:24:30.648Z,1.20
2023-05-03T11:27:08.759Z,1.00
2023-05-03T11:29:48.995Z,4.30
2023-05-03T11:32:21.233Z,1.70
2023-05-03T11:34:50.446Z,12.40
2023-05-03T11:37:27.531Z,2.70
2023-05-03T11:40:08.474Z,1.50
2023-05-03T11:42:58.564Z,2.20
2023-05-03T11:45:32.669Z,2.90
2023-05-03T11:48:09.829Z,2.20
2023-05-03T11:50:54.172Z,1.70
2023-05-03T11:53:23.814Z,1.50
2023-05-03T11:55:57.672Z,1.30
2023-05-03T11:58:34.994Z,2.20
2023-05-03T12:01:03.350Z,1.10
2023-05-03T12:03:35.788Z,2.50
2023-05-03T12:06:06.563Z,1.40
2023-05-03T12:08:42.934Z,3.60
2023-05-03T12:11:14.421Z,3.40
2023-05-03T12:13:44.324Z,1.90
2023-05-03T12:16:19.171Z,1.00
2023-05-03T12:19:01.671Z,2.30
2023-05-03T12:21:55.385Z,3.20
2023-05-03T12:24:39.382Z,1.70
2023-05-03T12:27:08.587Z,1.40
2023-05-03T12:29:38.140Z,2.10
2023-05-03T12:32:07.907Z,4.70
2023-05-03T12:34:36.946Z,2.70
2023-05-03T12:37:11.767Z,1.30
2023-05-03T12:40:01.289Z,2.70
2023-05-03T12:42:42.831Z,4.60
2023-05-03T12:45:16.280Z,2.00
2023-05-03T12:48:10.070Z,1.60
2023-05-03T12:50:51.884Z,3.30
2023-05-03T12:53:25.696Z,8.70
2023-05-03T12:55:58.546Z,18.00
2023-05-03T12:58:51.639Z,10.20
2023-05-03T13:02:02.858Z,2.80
2023-05-03T13:04:42.050Z,4.70
2023-05-03T13:06:59.340Z,8.00
2023-05-03T13:09:37.761Z,10.90
2023-05-03T13:12:20.567Z,11.70
2023-05-03T13:14:50.647Z,10.50
2023-05-03T13:17:20.050Z,8.60
2023-05-03T13:19:52.004Z,6.30
2023-05-03T13:27:00.115Z,14.00
2023-05-03T13:30:04.513Z,8.70
2023-05-03T13:32:34.470Z,2.40
2023-05-03T13:35:05.485Z,1.70
2023-05-03T13:37:37.664Z,2.50
2023-05-03T13:40:10.749Z,1.60
2023-05-03T13:42:40.575Z,2.30
2023-05-03T13:45:10.170Z,2.00
2023-05-03T13:50:11.937Z,4.00
2023-05-03T13:52:44.096Z,8.30
2023-05-03T13:55:14.490Z,2.60
2023-05-03T13:57:43.267Z,4.10
2023-05-03T14:00:16.098Z,1.90
2023-05-03T14:02:44.901Z,3.10
2023-05-03T14:05:14.648Z,8.10
2023-05-03T14:07:43.921Z,2.60
2023-05-03T14:10:11.565Z,6.10
2023-05-03T14:12:39.486Z,5.20
2023-05-03T14:15:13.648Z,2.70
2023-05-03T14:17:43.906Z,4.40
2023-05-03T14:20:12.024Z,9.00
2023-05-03T14:22:40.019Z,5.30
2023-05-03T14:25:08.096Z,3.60
2023-05-03T14:27:36.342Z,2.60
2023-05-03T14:30:09.025Z,2.00
2023-05-03T14:32:37.492Z,3.30
2023-05-03T14:35:07.652Z,5.20
2023-05-03T14:37:36.272Z,4.50
2023-05-03T14:40:06.994Z,5.30
2023-05-03T14:42:34.593Z,3.80
2023-05-03T14:45:01.858Z,2.90
2023-05-03T14:47:30.836Z,4.40
2023-05-03T14:49:58.973Z,1.50
2023-05-03T14:52:27.871Z,2.00
2023-05-03T14:54:55.059Z,1.50
2023-05-03T14:57:23.405Z,6.70
2023-05-03T14:59:52.381Z,2.70
2023-05-03T15:02:30.536Z,3.00
2023-05-03T15:05:00.152Z,3.60
2023-05-03T15:07:29.132Z,2.10
2023-05-03T15:09:59.069Z,3.80
2023-05-03T15:12:27.459Z,2.50
2023-05-03T15:14:55.318Z,2.00
2023-05-03T15:17:23.641Z,5.30
2023-05-03T15:19:52.162Z,7.20
2023-05-03T15:22:22.346Z,4.60
2023-05-03T15:24:50.733Z,2.30
2023-05-03T15:27:18.234Z,2.40
2023-05-03T15:29:46.276Z,4.90
2023-05-03T15:32:16.074Z,3.80
2023-05-03T15:34:44.818Z,3.70
2023-05-03T15:37:12.595Z,6.50
2023-05-03T15:39:39.522Z,4.70
2023-05-03T15:42:09.730Z,4.80
2023-05-03T15:44:37.964Z,3.80
2023-05-03T15:47:07.024Z,4.50
2023-05-03T15:49:35.293Z,10.10
2023-05-03T15:52:03.234Z,6.10
2023-05-03T15:54:30.449Z,4.20
2023-05-03T15:56:58.879Z,3.90
2023-05-03T15:59:26.333Z,4.90
2023-05-03T16:01:54.235Z,2.40
2023-05-03T16:04:21.732Z,4.50
2023-05-03T16:06:52.442Z,6.40
2023-05-03T16:09:20.858Z,8.20
2023-05-03T16:11:48.440Z,15.70
2023-05-03T16:14:17.046Z,20.50
2023-05-03T16:16:45.327Z,17.20
2023-05-03T16:19:13.211Z,17.40
2023-05-03T16:21:40.134Z,13.60
2023-05-03T16:24:07.848Z,9.30
2023-05-03T16:26:36.990Z,9.60
2023-05-03T16:29:04.488Z,10.80
2023-05-03T16:31:32.948Z,6.40
2023-05-03T16:34:04.630Z,4.10
2023-05-03T16:36:43.297Z,3.40
2023-05-03T16:39:27.615Z,4.40
2023-05-03T16:42:28.082Z,2.20
2023-05-03T16:45:08.568Z,5.00
2023-05-03T16:47:39.848Z,2.60
2023-05-03T16:50:09.716Z,4.80
2023-05-03T16:52:40.840Z,3.50
2023-05-03T16:55:28.810Z,1.30
2023-05-03T16:58:01.210Z,3.80
2023-05-03T17:00:31.289Z,1.40
2023-05-03T17:03:04.748Z,1.80
2023-05-03T17:05:34.603Z,2.30
2023-05-03T17:08:02.844Z,2.40
2023-05-03T17:10:38.897Z,2.20
2023-05-03T17:13:35.450Z,3.00
2023-05-03T17:16:30.877Z,2.80
2023-05-03T17:19:04.694Z,2.00
2023-05-03T17:21:36.831Z,1.90
2023-05-03T17:24:34.677Z,6.70
2023-05-03T17:27:04.078Z,4.20
2023-05-03T17:29:35.118Z,4.60
2023-05-03T17:32:25.416Z,3.10
2023-05-03T17:34:54.123Z,4.60
2023-05-03T17:37:30.751Z,3.60
2023-05-03T17:40:07.849Z,3.00
2023-05-03T17:43:08.096Z,3.20
2023-05-03T17:45:57.963Z,4.70
2023-05-03T17:48:35.404Z,5.10
2023-05-03T17:51:09.723Z,3.60
2023-05-03T17:53:37.388Z,3.90
2023-05-03T17:56:33.442Z,4.00
2023-05-03T17:59:29.824Z,5.00
2023-05-03T18:01:58.737Z,3.60
2023-05-03T18:04:45.160Z,7.40
2023-05-03T18:07:25.044Z,4.50
2023-05-03T18:09:54.433Z,5.40
2023-05-03T18:12:22.976Z,9.40
2023-05-03T18:14:59.373Z,8.80
2023-05-03T18:18:08.782Z,6.80
2023-05-03T18:20:57.901Z,5.10
2023-05-03T18:24:08.321Z,5.20
2023-05-03T18:26:47.304Z,4.30
2023-05-03T18:29:24.066Z,6.00
2023-05-03T18:31:55.094Z,4.10
2023-05-03T18:34:37.031Z,2.60
2023-05-03T18:37:15.054Z,3.30
2023-05-03T18:39:46.543Z,2.60
2023-05-03T18:42:19.660Z,2.60
2023-05-03T18:44:57.176Z,5.70
2023-05-03T18:47:24.318Z,2.80
2023-05-03T18:49:53.246Z,4.50
2023-05-03T18:54:50.919Z,3.20
2023-05-03T18:57:20.901Z,3.80
2023-05-03T19:00:10.174Z,2.80
2023-05-03T19:02:45.212Z,3.90
2023-05-03T19:07:53.608Z,4.80
2023-05-03T19:10:24.198Z,7.70
2023-05-03T19:12:53.599Z,3.70
2023-05-03T19:15:23.268Z,5.00
2023-05-03T19:17:51.764Z,7.30
2023-05-03T19:20:22.156Z,4.20
2023-05-03T19:22:58.883Z,3.10
2023-05-03T19:25:27.391Z,5.20
2023-05-03T19:27:56.127Z,7.30
2023-05-03T19:30:24.883Z,2.70
2023-05-03T19:32:52.547Z,6.80
2023-05-03T19:35:23.083Z,9.20
2023-05-03T19:37:52.848Z,4.40
2023-05-03T19:40:28.427Z,7.30
2023-05-03T19:43:04.872Z,2.40
2023-05-03T19:45:33.011Z,4.20
2023-05-03T19:48:08.350Z,6.20
2023-05-03T19:50:49.004Z,5.00
2023-05-03T19:53:17.670Z,6.10
2023-05-03T19:55:58.969Z,3.80
2023-05-03T19:58:29.675Z,6.20
2023-05-03T20:01:18.283Z,2.70
2023-05-03T20:06:17.005Z,1.90
2023-05-03T20:08:44.128Z,2.80
2023-05-03T20:11:12.691Z,3.80
2023-05-03T20:13:57.015Z,4.70
2023-05-03T20:16:27.732Z,2.80
2023-05-03T20:18:55.108Z,3.90
2023-05-03T20:21:31.154Z,3.30
2023-05-03T20:24:02.418Z,2.60
2023-05-03T20:26:33.684Z,3.10
2023-05-03T20:29:09.733Z,2.80
2023-05-03T20:31:38.793Z,4.70
2023-05-03T20:34:11.754Z,5.40
2023-05-03T20:36:40.000Z,5.50
2023-05-03T20:39:11.314Z,6.10
2023-05-03T20:41:53.991Z,5.40
2023-05-03T20:44:21.444Z,6.50
2023-05-03T20:46:50.335Z,2.60
2023-05-03T20:49:19.714Z,2.90
2023-05-03T20:51:50.877Z,4.60
2023-05-03T20:54:36.302Z,4.60
2023-05-03T20:57:21.060Z,5.10
2023-05-03T20:59:48.553Z,4.60
2023-05-03T21:02:16.470Z,5.50
2023-05-03T21:04:48.425Z,5.10
2023-05-03T21:07:21.280Z,3.60
2023-05-03T21:09:48.664Z,1.90
2023-05-03T21:12:16.668Z,2.80
2023-05-03T21:14:44.012Z,6.50
2023-05-03T21:17:12.685Z,2.70
2023-05-03T21:19:39.565Z,2.10
2023-05-03T21:22:09.906Z,5.50
2023-05-03T21:24:37.521Z,3.00
2023-05-03T21:27:04.475Z,5.80
2023-05-03T21:29:35.412Z,3.30
2023-05-03T21:32:04.723Z,2.70
2023-05-03T21:34:33.959Z,3.80
2023-05-03T21:37:00.891Z,2.10
2023-05-03T21:39:32.836Z,3.00
2023-05-03T21:42:02.111Z,5.40
2023-05-03T21:44:31.253Z,2.30
2023-05-03T21:46:58.851Z,2.10
2023-05-03T21:49:35.040Z,2.30
2023-05-03T21:52:24.417Z,2.20
2023-05-03T21:54:52.329Z,2.10
2023-05-03T21:57:39.186Z,4.20
2023-05-03T22:00:16.256Z,1.80
2023-05-03T22:02:44.821Z,2.00
2023-05-03T22:05:13.236Z,5.80
2023-05-03T22:07:40.603Z,2.10
2023-05-03T22:10:09.248Z,2.00
2023-05-03T22:12:45.162Z,2.40
2023-05-03T22:15:13.530Z,4.30
2023-05-03T22:17:41.409Z,3.90
2023-05-03T22:20:12.468Z,1.70
2023-05-03T22:22:40.306Z,2.40
2023-05-03T22:25:09.704Z,1.60
2023-05-03T22:27:37.258Z,3.80
2023-05-03T22:30:08.775Z,2.20
2023-05-03T22:32:39.152Z,3.50
2023-05-03T22:35:06.860Z,2.60
2023-05-03T22:37:34.560Z,1.40
2023-05-03T22:40:02.350Z,5.30
2023-05-03T22:42:32.941Z,7.40
2023-05-03T22:45:00.876Z,3.50
2023-05-03T22:47:29.777Z,2.40
2023-05-03T22:49:56.940Z,2.40
2023-05-03T22:52:25.936Z,2.80
2023-05-03T22:54:56.564Z,2.30
2023-05-03T22:57:32.013Z,2.10
2023-05-03T23:00:00.478Z,2.50
2023-05-03T23:02:29.852Z,2.80
2023-05-03T23:04:57.495Z,3.30
2023-05-03T23:07:26.242Z,5.00
2023-05-03T23:10:05.260Z,4.30
2023-05-03T23:12:33.547Z,2.80
2023-05-03T23:15:01.621Z,2.60
2023-05-03T23:17:28.981Z,2.70
2023-05-03T23:20:02.334Z,4.10
2023-05-03T23:22:30.787Z,2.80
2023-05-03T23:24:58.714Z,4.10
2023-05-03T23:27:25.727Z,4.60
2023-05-03T23:29:53.922Z,2.60
2023-05-03T23:32:21.518Z,3.70
2023-05-03T23:34:49.592Z,3.60
2023-05-03T23:37:18.075Z,4.20
2023-05-03T23:39:46.496Z,3.40
2023-05-03T23:42:13.434Z,3.50
2023-05-03T23:44:54.768Z,5.00
2023-05-03T23:47:22.887Z,2.90
2023-05-03T23:49:50.444Z,3.70
2023-05-03T23:52:19.911Z,2.50
2023-05-03T23:54:46.928Z,2.90
2023-05-03T23:57:14.236Z,2.80
2023-05-03T23:59:41.856Z,2.30
